Accueil
METAR-TAF:

METAR-TAF

Aéroports :

Aéroport de Ndola

Ndola, Zambie

latitude: 12-59-50S, longitude: 028-39-50E, altitude: 1270 m

METAR: absent

Heure: 09:43 (07:43 UTC)

Prévision

Le bulletin a été fait il y a 3 heures et 43 minutes, à 04:00 UTC
Prévision valable du 14 à 06 UTC au 15 à 12 UTC
Vent 5 kt de est
Visibilité: 7000 m
fumée
A partir de 14 à 1700 UTC
Vent 5 kt de est
Visibilité 10 km ou plus
pas de nuages en-dessous de 1500 mètres et pas de cumulonimbus.

TAF: FLSK 140400Z 1406/1512 09005KT 7000 FU NSC FM141700 08005KT CAVOK

Observations et prévisions météorologiques de plus de 4000 aéroports (messages METAR et TAF).

Les stations disponibles sont représentées par des disques jaunes et rouges sur la carte.

Passer la souris dessus pour voir le nom de la station.

Cliquer dessus pour voir les observations et prévisions météorologiques.

Pour changer de carte: cliquez sur les boutons verts avec une croix noire pour zoomer, sur le bouton vert avec un tiret pour effectuer un zoom arrière, ou sur les flèches vertes pour les cartes adjacentes.


METAR-TAF: